Terminal Aerodrome Forecast
Issued by NWS Jackson, KY

Home | Current Version | Previous Version | Text Only | Print | Product List | Glossary On
Versions: 1 2 3 4 5 6 7 8 9 10 11 12 13 14 15 16 17 18 19 20
000
FTUS43 KJKL 261100
TAFLOZ
TAF
KLOZ 261131Z 2612/2712 30010KT 5SM -RA OVC007
     FM261300 30008G15KT 3SM -RASN OVC005
     FM261400 30009G15KT 2SM -SHSN OVC004
     FM261800 30009KT P6SM VCSH OVC012=

USA.gov is the U.S. government's official web portal to all federal, state and local government web resources and services.